Latest Coastal Weather Observations for Truscott

IDD60701

Issued at 11:21 am CST Sunday 4 December 2016 (issued every 10 minutes, with the page automatically refreshed every 10 minutes)

About coastal observations | Map of coastal stations | Coastal observations for NT | Marine services | Other Formats
Station Details ID: 001020 Name: TRUSCOTT Lat: -14.09 Lon: 126.39 Height: 51.0 m
Data from the previous 72 hours. | See also: Recent months at Truscott
Date/Time
CST
Temp
°C
Wind Pressure Rain since
9am
mm
Weather Cloud Vis
km
Sea
Height
m
Swell
Dir  Spd
kts
Gust
kts
hPa Trend Height
m
Period
s
Dir
04/11:00am 32.6 NE 6 11 1009.1 - 0.0 - - 10 - - - -
04/10:30am 31.6 ENE 6 9 1009.2 - 41.2 - - 10 - - - -
04/10:00am 30.9 ENE 5 8 1009.2 - 41.2 - - 10 - - - -
04/09:30am 30.4 NE 5 7 1009.4 - 41.2 - - 10 - - - -
04/09:00am 30.5 ESE 5 7 1009.3 - 41.2 - - 10 - - - -
04/08:30am 29.6 ESE 5 8 1009.4 - 41.2 - - 10 - - - -
04/08:00am 28.5 ESE 4 8 1009.3 - 41.2 - - 10 - - - -
04/07:30am 27.4 ESE 4 6 1009.2 - 41.2 - Partly cloudy 10 - - - -
04/07:00am 27.0 SE 3 5 1008.9 - 41.2 - - 10 - - - -
04/06:30am 26.7 ESE 4 5 1008.5 - 41.2 - - 10 - - - -
04/06:00am 26.7 SE 4 6 1008.4 - 41.2 - - 10 - - - -
04/05:30am 26.7 ESE 4 6 1008.1 - 41.2 - - 10 - - - -
04/05:00am 26.8 ESE 3 5 1008.0 - 41.2 - - 10 - - - -
04/04:30am 27.0 SE 4 6 1007.8 - 41.2 - Mostly clear 10 - - - -
04/04:00am 27.0 SE 3 4 1007.8 - 41.2 - - 10 - - - -
04/03:30am 27.0 SE 4 5 1007.8 - 41.2 - - 10 - - - -
04/03:00am 26.8 E 3 5 1008.1 - 41.2 - - 10 - - - -
04/02:30am 26.9 SE 3 4 1008.3 - 41.2 - - 10 - - - -
04/02:00am 27.1 CALM 0 0 1008.5 - 41.2 - - 10 - - - -
04/01:30am 27.5 CALM 0 0 1008.6 - 41.2 - - 10 - - - -
04/01:00am 27.4 CALM 0 0 1008.8 - 41.2 - - 10 - - - -
04/12:30am 27.6 NNE 3 4 1009.3 - 41.2 - - 10 - - - -
04/12:00am 27.6 ENE 3 4 1009.7 - 41.2 - - 10 - - - -
 
Date/Time
CST
Temp
°C
Wind Pressure Rain since
9am
mm
Weather Cloud Vis
km
Sea
Height
m
Swell
Dir  Spd
kts
Gust
kts
hPa Trend Height
m
Period
s
Dir
03/11:30pm 27.8 E 3 4 1010.0 - 41.2 - - 10 - - - -
03/11:00pm 28.0 E 4 5 1010.0 - 41.2 - - 10 - - - -
03/10:30pm 28.0 ESE 4 4 1009.8 - 41.2 - - 10 - - - -
03/10:00pm 28.5 NNE 4 7 1009.4 - 41.2 - - 10 - - - -
03/09:30pm 28.5 NE 4 5 1009.4 - 41.2 - - 10 - - - -
03/09:00pm 28.6 NNE 3 6 1009.3 - 41.2 - - 10 - - - -
03/08:30pm 28.8 NNE 5 6 1009.3 - 41.2 - - 10 - - - -
03/08:00pm 28.8 NNE 3 4 1009.1 - 41.2 - - 10 - - - -
03/07:30pm 29.2 NNE 6 9 1008.8 - 41.2 - - 10 - - - -
03/07:00pm 29.8 N 5 7 1008.2 - 41.2 - - 10 - - - -
03/06:30pm 30.2 NNE 6 9 1007.9 - 41.2 - - 10 - - - -
03/06:00pm 30.4 N 7 10 1007.5 - 41.2 - Partly cloudy 10 - - - -
03/05:30pm 30.7 N 5 8 1007.2 - 41.2 - Partly cloudy 10 - - - -
03/05:00pm 30.6 E 3 6 1007.1 - 41.2 - - 10 - - - -
03/04:30pm 30.1 ENE 5 7 1007.2 - 41.2 Recent precip. Mostly clear 10 - - - -
03/04:00pm 29.0 ESE 5 7 1007.0 - 41.2 - Partly cloudy 10 - - - -
03/03:30pm 27.5 ESE 2 5 1006.8 - 41.0 - Partly cloudy 10 - - - -
03/03:28pm 27.3 SE 2 5 1006.7 - 41.0 - Partly cloudy 10 - - - -
03/03:06pm 27.5 NE 9 14 1007.6 - 39.0 - Partly cloudy 5 - - - -
03/03:00pm 29.3 ENE 8 14 1007.5 - 35.2 - Partly cloudy 10 - - - -
03/02:30pm 30.9 NNE 6 8 1008.1 - 35.2 - Partly cloudy 10 - - - -
03/02:00pm 29.9 NNE 5 7 1008.1 - 35.2 - Cloudy 10 - - - -
03/01:30pm 27.5 E 3 5 1008.8 - 35.2 Recent precip. Cloudy 10 - - - -
03/01:00pm 25.7 NNE 3 7 1008.9 - 35.2 - Partly cloudy 10 - - - -
03/12:59pm 25.7 NNE 3 7 1008.9 - 35.2 - Partly cloudy 10 - - - -
03/12:57pm 25.8 N 3 6 1008.9 - 35.2 - Partly cloudy 10 - - - -
03/12:30pm 25.4 NNE 12 24 1009.5 - 26.6 - Partly cloudy 0.8 - - - -
03/12:21pm 25.4 N 14 25 1009.1 - 9.2 - Partly cloudy 2 - - - -
03/12:19pm 25.9 NNW 12 25 1009.1 - 8.0 - Partly cloudy 2 - - - -
03/12:14pm 27.8 WNW 9 12 1009.2 - 4.2 - Partly cloudy 5 - - - -
03/12:00pm 32.7 SW 7 9 1008.7 - 0.0 - Partly cloudy 10 - - - -
03/11:30am 32.9 WSW 5 9 1009.4 - 0.0 - Partly cloudy 10 - - - -
03/11:00am 32.6 WSW 5 7 1009.5 - 0.0 - - 10 - - - -
03/10:30am 31.4 WSW 5 8 1009.8 - 4.6 - Mostly clear 10 - - - -
03/10:00am 31.1 WSW 4 7 1010.0 - 4.6 - Partly cloudy 10 - - - -
03/09:30am 31.0 SSW 4 9 1010.0 - 4.6 - - 10 - - - -
03/09:00am 30.4 S 3 5 1009.8 - 4.6 - - 10 - - - -
03/08:30am 30.1 SSE 2 4 1009.3 - 4.6 - - 10 - - - -
03/08:00am 29.3 SSE 3 4 1009.1 - 4.6 - - 10 - - - -
03/07:30am 28.0 SSE 1 4 1008.8 - 4.6 - - 10 - - - -
03/07:00am 26.3 CALM 0 0 1008.5 - 4.6 - - 10 - - - -
03/06:30am 26.0 CALM 0 0 1007.9 - 4.6 - - 10 - - - -
03/06:00am 25.7 S 3 4 1007.9 - 4.6 - - 10 - - - -
03/05:30am 25.8 SSE 5 6 1007.6 - 4.6 - - 10 - - - -
03/05:00am 25.9 CALM 0 0 1007.4 - 4.6 - - 10 - - - -
03/04:30am 26.0 S 3 4 1007.3 - 4.6 - - 10 - - - -
03/04:00am 26.1 S 3 4 1007.2 - 4.6 - - 10 - - - -
03/03:30am 25.6 CALM 0 4 1006.9 - 4.6 - - 10 - - - -
03/03:00am 25.6 ESE 3 4 1007.0 - 4.6 - - 10 - - - -
03/02:30am 25.8 ESE 3 5 1007.0 - 4.6 - - 10 - - - -
03/02:00am 25.8 CALM 0 0 1007.2 - 4.6 - - 10 - - - -
03/01:30am 25.9 SE 3 5 1007.4 - 4.6 - Cloudy 10 - - - -
03/01:00am 26.0 ENE 5 6 1007.6 - 4.6 - - 10 - - - -
03/12:30am 26.0 CALM 0 0 1008.2 - 4.6 - - 10 - - - -
03/12:00am 26.1 ESE 3 4 1008.6 - 4.6 - - 10 - - - -
 
Date/Time
CST
Temp
°C
Wind Pressure Rain since
9am
mm
Weather Cloud Vis
km
Sea
Height
m
Swell
Dir  Spd
kts
Gust
kts
hPa Trend Height
m
Period
s
Dir
02/11:30pm 26.5 S 6 8 1008.7 - 4.6 - - 10 - - - -
02/11:00pm 26.4 SSE 4 5 1008.8 - 4.6 - - 10 - - - -
02/10:30pm 26.3 NW 4 5 1008.5 - 4.6 - Mostly cloudy 10 - - - -
02/10:00pm 26.4 CALM 0 0 1008.0 - 4.6 - - 10 - - - -
02/09:30pm 26.2 SW 5 7 1008.2 - 4.6 - - 10 - - - -
02/09:00pm 26.1 W 7 11 1008.1 - 4.6 - - 10 - - - -
02/08:30pm 25.9 WSW 5 9 1007.7 - 4.6 - Partly cloudy 10 - - - -
02/08:00pm 25.2 WSW 9 13 1007.2 - 4.4 - Partly cloudy 10 - - - -
02/07:47pm 25.5 WNW 8 12 1007.3 - 4.4 - Partly cloudy 10 - - - -
02/07:31pm 24.8 NNE 4 8 1008.0 - 3.8 - Partly cloudy 5 - - - -
02/07:30pm 24.7 NE 4 8 1008.0 - 3.6 Rain Cloudy 6 - - - -
02/07:22pm 24.7 SSE 6 11 1007.8 - 2.6 - Partly cloudy 10 - - - -
02/07:10pm 24.2 SE 11 19 1007.7 - 1.8 - Partly cloudy 5 - - - -
02/07:00pm 24.7 SE 11 24 1007.5 - 0.6 - Partly cloudy 10 - - - -
02/06:32pm 29.4 NNE 7 25 1007.5 - 0.0 - Partly cloudy 10 - - - -
02/06:30pm 31.8 N 5 8 1007.1 - 0.0 - Partly cloudy 10 - - - -
02/06:00pm 32.0 NNW 9 14 1005.7 - 0.0 - - 10 - - - -
02/05:30pm 32.0 NW 11 17 1004.7 - 0.0 - - 10 - - - -
02/05:00pm 34.0 NNW 9 14 1005.2 - 0.0 - - 10 - - - -
02/04:30pm 34.4 N 9 13 1005.2 - 0.0 - - 10 - - - -
02/04:00pm 34.2 NNW 8 13 1005.3 - 0.0 - - 10 - - - -
02/03:30pm 34.1 NW 8 13 1005.3 - 0.0 - - 10 - - - -
02/03:00pm 34.2 NW 7 11 1005.6 - 0.0 - - 10 - - - -
02/02:30pm 34.5 NNW 8 13 1006.0 - 0.0 - - 10 - - - -
02/02:00pm 34.7 NNW 8 13 1006.4 - 0.0 - - 10 - - - -
02/01:30pm 33.7 NNW 8 12 1006.7 - 0.0 - - 10 - - - -
02/01:00pm 33.3 NNW 8 11 1006.9 - 0.0 - - 10 - - - -
02/12:30pm 32.7 NNW 10 15 1007.2 - 0.0 - - 10 - - - -
02/12:00pm 31.8 NNW 8 14 1007.6 - 0.0 - - 10 - - - -
02/11:30am 32.9 NNW 7 10 1008.1 - 0.0 - - 10 - - - -
02/11:00am 32.8 NNE 5 8 1008.6 - 0.0 - - 10 - - - -
02/10:30am 32.3 ENE 6 9 1008.8 - 4.6 - - 10 - - - -
02/10:00am 31.3 ENE 8 13 1009.2 - 4.6 - - 10 - - - -
02/09:30am 31.1 E 8 13 1009.5 - 4.6 - - 10 - - - -
02/09:00am 30.3 E 9 14 1009.7 - 4.6 - - 10 - - - -
02/08:30am 29.3 ESE 7 11 1009.7 - 4.6 - Partly cloudy 10 - - - -
02/08:00am 29.7 ESE 6 11 1009.5 - 4.6 - - 10 - - - -
02/07:30am 28.5 SE 5 7 1009.2 - 4.6 - Mostly clear 10 - - - -
02/07:00am 27.4 SE 4 6 1008.6 - 4.6 - - 10 - - - -
02/06:30am 26.8 SE 5 7 1008.5 - 4.6 - - 10 - - - -
02/06:00am 26.4 ESE 5 6 1007.8 - 4.6 - - 10 - - - -
02/05:30am 26.4 SE 3 4 1007.0 - 4.6 - - 10 - - - -
02/05:00am 26.5 ESE 4 5 1006.4 - 4.6 - - 10 - - - -
02/04:30am 26.3 S 4 5 1005.7 - 4.6 - - 10 - - - -
02/04:00am 26.3 CALM 0 0 1005.7 - 4.6 - - 10 - - - -
02/03:30am 26.3 CALM 0 0 1005.6 - 4.6 - - 10 - - - -
02/03:00am 26.3 CALM 0 0 1005.7 - 4.6 - - 10 - - - -
02/02:30am 26.7 CALM 0 0 1005.8 - 4.6 - - 10 - - - -
02/02:00am 27.7 CALM 0 2 1005.7 - 4.6 - - 10 - - - -
02/01:30am 27.4 NW 2 5 1005.7 - 4.6 - Partly cloudy 10 - - - -
02/01:00am 27.3 CALM 0 0 1006.2 - 4.6 - - 10 - - - -
02/12:30am 28.0 SE 3 5 1006.7 - 4.6 - - 10 - - - -
02/12:00am 28.5 NE 4 5 1006.7 - 4.6 - - 10 - - - -
 
Date/Time
CST
Temp
°C
Wind Pressure Rain since
9am
mm
Weather Cloud Vis
km
Sea
Height
m
Swell
Dir  Spd
kts
Gust
kts
hPa Trend Height
m
Period
s
Dir
01/11:30pm 29.4 WSW 4 8 1006.5 - 4.6 - - 10 - - - -
01/11:00pm 28.7 W 7 10 1006.3 - 4.6 - - 10 - - - -
01/10:30pm 28.1 SW 9 16 1006.5 - 4.6 - Cloudy 10 - - - -
01/10:00pm 27.0 SW 11 17 1006.4 - 4.6 - - 10 - - - -
01/09:30pm 27.5 SSW 8 16 1006.0 - 4.6 - Partly cloudy 10 - - - -
01/09:00pm 26.8 WSW 6 10 1005.6 - 4.6 - Partly cloudy 10 - - - -
01/08:30pm 26.4 W 10 15 1005.6 - 4.4 - Partly cloudy 10 - - - -
01/08:00pm 26.2 SW 9 11 1006.3 - 4.2 - Partly cloudy 10 - - - -
01/07:30pm 25.2 S 7 12 1006.2 - 3.8 Rain Cloudy 10 - - - -
01/07:05pm 24.2 SE 12 22 1006.6 - 3.6 - Partly cloudy 10 - - - -
01/07:00pm 24.4 ESE 12 22 1006.5 - 3.6 - Partly cloudy 9 - - - -
01/06:52pm 25.3 E 11 17 1006.4 - 3.2 - Partly cloudy 5 - - - -
01/06:30pm 28.0 ENE 16 29 1006.2 - 0.0 - Partly cloudy 10 - - - -
01/06:28pm 28.1 ENE 16 26 1005.9 - 0.0 - Partly cloudy 10 - - - -
01/06:25pm 28.2 E 15 25 1005.9 - 0.0 - Partly cloudy 10 - - - -
01/06:00pm 33.3 W 11 16 1004.5 - 0.0 - - 10 - - - -
01/05:30pm 34.5 W 10 15 1003.9 - 0.0 - - 10 - - - -
01/05:00pm 34.7 WNW 8 13 1003.9 - 0.0 - - 10 - - - -
01/04:30pm 35.0 WNW 10 15 1004.0 - 0.0 - - 10 - - - -
01/04:00pm 35.8 WNW 8 12 1004.1 - 0.0 - - 10 - - - -
01/03:30pm 35.6 WNW 10 15 1004.5 - 0.0 - - 10 - - - -
01/03:00pm 35.8 WNW 11 16 1004.7 - 0.0 - - 10 - - - -
01/02:30pm 36.1 WNW 9 14 1005.4 - 0.0 - - 10 - - - -
01/02:00pm 36.0 WNW 10 16 1005.9 - 0.0 - Partly cloudy 10 - - - -
01/01:30pm 36.5 W 8 13 1006.1 - 0.0 - - 10 - - - -
01/01:00pm 36.3 W 10 14 1006.5 - 0.0 - - 10 - - - -

Other Formats:

Comma delimited format used in spreadsheet applications
http://www.bom.gov.au/fwo/IDD60701/IDD60701.95101.axf

JavaScript Object Notation format (JSON) in row-major order
http://www.bom.gov.au/fwo/IDD60701/IDD60701.95101.json